Worthington, MO (63567)

1:28 PM CDT on July 22, 2014 (GMT -0500)
KMOLANCA2 Elev 915 ft | 40.52 °N, 92.52 °W | Change Station
Active Advisory: Heat Advisory

Current weather conditions updated 11 minutes ago

Clear
Clear
84.8 °F
Feels Like 98 °F
N
5.0
Wind Variable Wind from WSW

Today is forecast to be Warmer than yesterday.

Today
High -- | Low -- °F
--% Chance of Precip.
Yesterday
High -- | Low -- °F
Precip. -- in
5:59 AM 8:35 PM
Waning Crescent, 16% visible
Pressure 30.01 in
Visibility 10.0 miles
Clouds Clear
Heat Index 98 °F
Dew Point 79 °F
Humidity 83%
Rainfall 0.00 in
Snow Depth Not available.
UV 11 out of 12
Pollen 6.10 out of 12
Air Quality Not available.
Flu Activity Sporadic
METAR KTVK 221815Z AUTO 21005KT 10SM CLR 30/26 A3001 RMK AO2

More Conditions Fewer Conditions

Pressure 30.01 in
Visibility 10.0 miles
Clouds Clear
Heat Index 98 °F
Dew Point 79 °F
Humidity 83%
Rainfall 0.00 in
Snow Depth Not available.
UV 11 out of 12
Pollen 6.10 out of 12
Air Quality Not available.
Flu Activity Sporadic
METAR KTVK 221815Z AUTO 21005KT 10SM CLR 30/26 A3001 RMK AO2

More Conditions Fewer Conditions

10-Day Weather Forecast

LIGHTNING

Thunderstorms are forecast for your area. Cloud conditions might be right for producing strikes in the next few days, though lightning itself cannot be forecasted.

Lightning is a visible electrical discharge produced by a thunderstorm, based on the build up of oppositely charged particles within a cloud and from cloud to ground.

Know how to stay safe in a lightning storm.

Check out these Lightning WunderPhotos!

Almanac

Astronomy

Jul. 22, 2014 Rise Set
Actual Time 5:59 AM CDT 8:35 PM CDT
Civil Twilight 5:27 AM CDT 9:06 PM CDT
Nautical Twilight 4:48 AM CDT 9:45 PM CDT
Astronomical Twilight 4:04 AM CDT 10:29 PM CDT
Moon 2:33 AM CDT 5:13 PM CDT
Length of Visible Light 15h 38m
Length of Day
14h 35m
Tomorrow will be 1m 41s shorter.
Waning Crescent, 16% of the Moon is Illuminated
Today
Waning Crescent
Jul 26
New
Aug 3
First Quarter
Aug 10
Full
Aug 17
Last Quarter

Today's Extremes

State Highs State Lows

Community

WunderPhotos

Upload Photos

1,736,315 photos uploaded!

Nearby

Snow Depth

Station Depth Elevation
No new snow has been reported.

Earthquake Activity

City Distance Mag. Time & Date
No recent earthquake activity has been reported nearby.
Minimum magnitude displayed is 2.5.

Coastal Water Temperatures

Place Temperature
No Stations Reporting

Nearby Weather Stations

Station Location Temp. Heat Index Dew Point Humidity Wind Precip. Elev Updated Type
Lancaster, MO 84.8 °F 98 °F 79 °F 83% WSW  at  5.0 mph - / hr 915 ft 1:17 PM CDT Normal
Unionville MO, Unionville, MO 88.5 °F 102 °F 78 °F 70% SW  at  7.6 mph 0.00 in / hr 1053 ft 1:28 PM CDT Rapid Fire
Wyacondah TWP, Bloomfield, IA 85.5 °F 99 °F 79 °F 82% SSW  at  1.6 mph 0.00 in / hr 886 ft 1:28 PM CDT Rapid Fire

Show More Stations Show Fewer Stations